This is the latest recevied weather packets stored in our database for station/object SP8NFE-1. If no packets are shown the sender has not sent any weather packets the latest 10 day(s).
| Time | Temp. | Humidity | Pressure | Rain* | Wind** | Luminosity | Snow |
|---|---|---|---|---|---|---|---|
| 1777713023 | 15.56° C | 46% | 0 hPa | 0 mm | - | - | - |
| 1777712723 | 15° C | 45% | 0 hPa | 0 mm | - | - | - |
| 1777712431 | 15° C | 46% | 0 hPa | 0 mm | - | - | - |
| 1777712129 | 15° C | 46% | 0 hPa | 0 mm | - | - | - |
| 1777711823 | 15.56° C | 45% | 0 hPa | 0 mm | - | - | - |
| 1777711523 | 15.56° C | 47% | 0 hPa | 0 mm | - | - | - |
| 1777711223 | 15° C | 47% | 0 hPa | 0 mm | - | - | - |
| 1777710923 | 15° C | 47% | 0 hPa | 0 mm | - | - | - |
| 1777710623 | 15° C | 48% | 0 hPa | 0 mm | - | - | - |
| 1777710323 | 14.44° C | 50% | 0 hPa | 0 mm | - | - | - |
| 1777710023 | 14.44° C | 50% | 0 hPa | 0 mm | - | - | - |
| 1777709723 | 14.44° C | 50% | 0 hPa | 0 mm | - | - | - |
| 1777708823 | 13.89° C | 51% | 0 hPa | 0 mm | - | - | - |
| 1777708529 | 13.89° C | 52% | 0 hPa | 0 mm | - | - | - |
| 1777708223 | 13.33° C | 54% | 0 hPa | 0 mm | - | - | - |
| 1777704923 | 11.11° C | 77% | 0 hPa | 0 mm | - | - | - |
| 1777704626 | 11.11° C | 79% | 0 hPa | 0 mm | - | - | - |
| 1777704323 | 10.56° C | 87% | 0 hPa | 0 mm | - | - | - |
| 1777704023 | 10° C | 92% | 0 hPa | 0 mm | - | - | - |
| 1777703823 | 10° C | 92% | 0 hPa | 0 mm | - | - | - |
| 1777703423 | 9.44° C | 93% | 0 hPa | 0 mm | - | - | - |
| 1777702948 | 8.33° C | 99% | 0 hPa | 0 mm | - | - | - |
| 1777702523 | 8.33° C | 100% | 0 hPa | 0 mm | - | - | - |
| 1777702224 | 7.78° C | 100% | 0 hPa | 0 mm | - | - | - |
| 1777701924 | 7.22° C | 100% | 0 hPa | 0 mm | - | - | - |
* Rain latest hour (hover to see other rain measurements)
** Current wind speed in m/s (hover to see current wind gust speed)